Time;durP1;ratioP1;P1;durP2;ratioP2;P2;SDS_P1;SDS_P2;PMS_P1;PMS_P2;Temp;Humidity;BMP_temperature;BMP_pressure;BME280_temperature;BME280_humidity;BME280_pressure;Samples;Min_cycle;Max_cycle;Signal;HPM_P1;HPM_P2
2022/08/30 00:01:26;;;;;;;5.30;4.50;;;20.60;99.90;;;;;;6132197;23;20467;-70
2022/08/30 00:03:54;;;;;;;5.20;4.70;;;20.60;99.90;;;;;;6135248;23;20443;-70
2022/08/30 00:06:25;;;;;;;4.73;4.33;;;20.60;99.90;;;;;;6145875;23;20437;-69
2022/08/30 00:08:53;;;;;;;5.30;4.53;;;20.50;99.90;;;;;;6140603;23;20533;-69
2022/08/30 00:11:23;;;;;;;4.13;3.83;;;20.50;99.90;;;;;;6140814;23;20496;-69
2022/08/30 00:13:52;;;;;;;4.37;4.00;;;20.50;99.90;;;;;;6140964;23;20817;-69
2022/08/30 00:16:22;;;;;;;4.43;4.13;;;20.50;99.90;;;;;;6144131;23;20433;-69
2022/08/30 00:18:49;;;;;;;4.40;4.00;;;20.50;99.90;;;;;;6136676;23;20561;-69
2022/08/30 00:21:16;;;;;;;4.70;4.30;;;20.50;99.90;;;;;;6132360;23;20444;-69
2022/08/30 00:23:45;;;;;;;4.43;4.10;;;20.40;99.90;;;;;;6134126;23;20954;-69
2022/08/30 00:26:12;;;;;;;5.37;4.93;;;20.40;99.90;;;;;;6139055;23;20462;-69
2022/08/30 00:28:39;;;;;;;5.63;4.00;;;20.40;99.90;;;;;;6135329;23;21048;-69
2022/08/30 00:31:07;;;;;;;5.30;4.07;;;20.30;99.90;;;;;;6137264;23;20433;-69
2022/08/30 00:33:34;;;;;;;5.03;4.50;;;20.40;99.90;;;;;;6142809;23;20437;-69
2022/08/30 00:36:02;;;;;;;4.90;4.50;;;20.30;99.90;;;;;;6141141;23;21034;-69
2022/08/30 00:38:29;;;;;;;4.77;4.40;;;20.30;99.90;;;;;;6144716;23;20982;-69
2022/08/30 00:40:58;;;;;;;4.60;4.20;;;20.30;99.90;;;;;;6144995;23;20456;-69
2022/08/30 00:43:27;;;;;;;4.93;4.53;;;20.20;99.90;;;;;;6143124;23;20435;-70
2022/08/30 00:45:55;;;;;;;4.90;4.40;;;20.20;99.90;;;;;;6146032;23;20444;-70
2022/08/30 00:48:23;;;;;;;5.10;4.60;;;20.20;99.90;;;;;;6145639;23;20537;-70
2022/08/30 00:50:55;;;;;;;6.93;4.50;;;20.10;99.90;;;;;;6138580;23;20534;-70
2022/08/30 00:53:26;;;;;;;5.03;4.53;;;20.10;99.90;;;;;;6135340;23;20469;-69
2022/08/30 00:55:54;;;;;;;4.33;3.90;;;20.10;99.90;;;;;;6129414;23;21249;-69
2022/08/30 00:58:30;;;;;;;4.90;4.47;;;20.10;99.90;;;;;;6126942;23;20528;-68
2022/08/30 01:01:00;;;;;;;5.37;4.87;;;20.00;99.90;;;;;;6141761;23;20448;-69
2022/08/30 01:03:27;;;;;;;5.10;4.63;;;20.00;99.90;;;;;;6139589;23;20945;-69
2022/08/30 01:05:57;;;;;;;5.30;4.90;;;20.00;99.90;;;;;;6134742;23;20451;-69
2022/08/30 01:08:24;;;;;;;4.70;4.20;;;20.00;99.90;;;;;;6132014;23;20475;-68
2022/08/30 01:10:53;;;;;;;4.80;4.40;;;19.90;99.90;;;;;;6141643;23;20478;-68
2022/08/30 01:13:21;;;;;;;6.03;4.60;;;19.90;99.90;;;;;;6144950;23;20428;-68
2022/08/30 01:15:50;;;;;;;4.60;4.20;;;19.90;99.90;;;;;;6146332;23;20476;-68
2022/08/30 01:18:18;;;;;;;6.40;4.87;;;19.90;99.90;;;;;;6137885;23;20963;-68
2022/08/30 01:20:50;;;;;;;4.60;4.20;;;19.80;99.90;;;;;;6139929;23;20441;-69
2022/08/30 01:23:21;;;;;;;5.00;4.50;;;19.80;99.90;;;;;;6145547;23;20464;-69
2022/08/30 01:25:49;;;;;;;5.23;4.40;;;19.80;99.90;;;;;;6138071;23;20531;-69
2022/08/30 01:28:20;;;;;;;4.47;4.00;;;19.80;99.90;;;;;;6131990;23;20569;-68
2022/08/30 01:30:47;;;;;;;4.80;4.40;;;19.70;99.90;;;;;;6136824;23;20436;-69
2022/08/30 01:33:14;;;;;;;5.87;5.10;;;19.70;99.90;;;;;;6145712;23;20784;-69
2022/08/30 01:35:47;;;;;;;5.10;4.70;;;19.70;99.90;;;;;;6140818;23;20496;-68
2022/08/30 01:38:15;;;;;;;4.97;4.50;;;19.70;99.90;;;;;;6144260;23;20540;-68
2022/08/30 01:40:44;;;;;;;5.50;4.50;;;19.60;99.90;;;;;;6137737;23;20457;-68
2022/08/30 01:43:13;;;;;;;5.77;5.20;;;19.60;99.90;;;;;;6142025;23;20436;-68
2022/08/30 01:45:41;;;;;;;5.07;4.50;;;19.60;99.90;;;;;;6138095;23;20438;-69
2022/08/30 01:48:11;;;;;;;5.30;4.90;;;19.60;99.90;;;;;;6145102;23;20502;-68
2022/08/30 01:50:39;;;;;;;4.73;4.30;;;19.50;99.90;;;;;;6142756;23;20441;-69
2022/08/30 01:53:06;;;;;;;5.20;4.80;;;19.50;99.90;;;;;;6138956;23;20461;-68
2022/08/30 01:55:34;;;;;;;4.50;4.20;;;19.50;99.90;;;;;;6143364;23;20534;-68
2022/08/30 01:58:02;;;;;;;4.90;4.50;;;19.50;99.90;;;;;;6145093;23;20856;-69
2022/08/30 02:00:30;;;;;;;5.10;4.70;;;19.50;99.90;;;;;;6141532;23;20528;-69
2022/08/30 02:02:57;;;;;;;5.17;4.77;;;19.40;99.90;;;;;;6148740;23;20437;-68
2022/08/30 02:05:25;;;;;;;5.83;5.33;;;19.40;99.90;;;;;;6143697;23;20436;-68
2022/08/30 02:07:52;;;;;;;6.30;5.27;;;19.40;99.90;;;;;;6142199;23;20488;-69
2022/08/30 02:10:20;;;;;;;5.30;4.90;;;19.30;99.90;;;;;;6138634;23;20448;-69
2022/08/30 02:12:47;;;;;;;5.73;5.23;;;19.30;99.90;;;;;;6136070;23;20435;-69
2022/08/30 02:15:16;;;;;;;5.60;5.10;;;19.30;99.90;;;;;;6139728;23;20457;-68
2022/08/30 02:17:43;;;;;;;5.23;4.73;;;19.20;99.90;;;;;;6137831;23;20461;-68
2022/08/30 02:20:11;;;;;;;5.63;5.10;;;19.10;99.90;;;;;;6142186;23;20486;-68
2022/08/30 02:22:38;;;;;;;5.70;5.20;;;18.90;99.90;;;;;;6149510;23;20466;-68
2022/08/30 02:25:07;;;;;;;7.00;6.30;;;18.70;99.90;;;;;;6138605;23;20433;-68
2022/08/30 02:27:34;;;;;;;5.97;5.37;;;18.70;99.90;;;;;;6136110;23;20440;-68
2022/08/30 02:30:02;;;;;;;5.90;5.30;;;18.60;99.90;;;;;;6139341;23;20934;-68
2022/08/30 02:32:30;;;;;;;6.33;5.80;;;18.50;99.90;;;;;;6141144;23;20437;-68
2022/08/30 02:34:57;;;;;;;5.80;5.30;;;18.50;99.90;;;;;;6132301;23;20536;-68
2022/08/30 02:37:25;;;;;;;7.60;6.37;;;18.40;99.90;;;;;;6140522;23;20447;-68
2022/08/30 02:39:52;;;;;;;7.30;6.60;;;18.40;99.90;;;;;;6132548;23;20480;-68
2022/08/30 02:42:19;;;;;;;6.67;5.97;;;18.30;99.90;;;;;;6135642;23;20437;-68
2022/08/30 02:44:46;;;;;;;7.00;5.83;;;18.30;99.90;;;;;;6141025;23;20447;-68
2022/08/30 02:47:13;;;;;;;6.47;5.97;;;18.20;99.90;;;;;;6129994;23;20498;-68
2022/08/30 02:49:41;;;;;;;7.63;6.83;;;18.20;99.90;;;;;;6141789;23;20445;-68
2022/08/30 02:52:08;;;;;;;6.40;5.90;;;18.20;99.90;;;;;;6145164;23;20563;-69
2022/08/30 02:54:35;;;;;;;6.37;5.77;;;18.20;99.90;;;;;;6135848;23;20832;-68
2022/08/30 02:57:05;;;;;;;6.07;5.60;;;18.20;99.90;;;;;;6140424;23;20457;-68
2022/08/30 02:59:33;;;;;;;6.00;5.57;;;18.20;99.90;;;;;;6143583;23;20595;-68
2022/08/30 03:01:59;;;;;;;6.23;5.73;;;18.20;99.90;;;;;;6139997;23;20442;-68
2022/08/30 03:04:26;;;;;;;6.30;5.80;;;18.20;99.90;;;;;;6141445;23;20453;-68
2022/08/30 03:06:55;;;;;;;6.40;5.80;;;18.20;99.90;;;;;;6145284;23;20956;-69
2022/08/30 03:09:22;;;;;;;6.63;6.07;;;18.20;99.90;;;;;;6145335;23;21028;-68
2022/08/30 03:11:49;;;;;;;6.17;5.67;;;18.20;99.90;;;;;;6125852;23;21195;-68
2022/08/30 03:14:16;;;;;;;6.63;6.00;;;18.10;99.90;;;;;;6135303;23;20436;-68
2022/08/30 03:16:43;;;;;;;6.97;6.23;;;18.10;99.90;;;;;;6145071;23;20522;-68
2022/08/30 03:19:10;;;;;;;6.07;5.57;;;18.20;99.90;;;;;;6140292;23;20459;-68
2022/08/30 03:21:38;;;;;;;6.90;6.20;;;18.20;99.90;;;;;;6142933;23;20951;-68
2022/08/30 03:24:07;;;;;;;6.60;5.97;;;18.20;99.90;;;;;;6149301;23;20475;-68
2022/08/30 03:26:34;;;;;;;6.80;6.10;;;18.20;99.90;;;;;;6145919;23;20923;-68
2022/08/30 03:29:01;;;;;;;6.47;5.73;;;18.20;99.90;;;;;;6133828;23;20514;-68
2022/08/30 03:31:29;;;;;;;5.80;5.30;;;18.20;99.90;;;;;;6132385;23;20442;-68
2022/08/30 03:33:56;;;;;;;5.93;5.43;;;18.20;99.90;;;;;;6134062;23;20782;-68
2022/08/30 03:36:23;;;;;;;7.03;6.27;;;18.20;99.90;;;;;;6143137;23;20468;-68
2022/08/30 03:38:50;;;;;;;6.57;5.93;;;18.20;99.90;;;;;;6134104;23;20476;-68
2022/08/30 03:41:18;;;;;;;6.30;5.70;;;18.20;99.90;;;;;;6141965;23;20468;-68
2022/08/30 03:43:46;;;;;;;6.90;6.30;;;18.20;99.90;;;;;;6126777;23;21011;-69
2022/08/30 03:46:14;;;;;;;8.47;7.67;;;18.20;99.90;;;;;;6141426;23;20512;-68
2022/08/30 03:48:41;;;;;;;7.00;6.40;;;18.20;99.90;;;;;;6136049;23;21034;-68
2022/08/30 03:51:08;;;;;;;6.43;5.90;;;18.20;99.90;;;;;;6139252;23;20818;-68
2022/08/30 03:53:35;;;;;;;6.27;5.63;;;18.20;99.90;;;;;;6139688;23;20430;-68
2022/08/30 03:56:03;;;;;;;7.30;6.60;;;18.20;99.90;;;;;;6136021;23;20539;-68
2022/08/30 03:58:33;;;;;;;7.00;6.40;;;18.10;99.90;;;;;;6137657;23;20458;-68
2022/08/30 04:01:00;;;;;;;6.60;5.67;;;18.00;99.90;;;;;;6145623;23;20792;-68
2022/08/30 04:03:27;;;;;;;6.33;5.67;;;18.00;99.90;;;;;;6132650;23;20442;-68
2022/08/30 04:05:54;;;;;;;7.73;5.70;;;17.90;99.90;;;;;;6142518;23;20436;-68
2022/08/30 04:08:23;;;;;;;6.57;6.00;;;17.90;99.90;;;;;;6138235;23;20491;-68
2022/08/30 04:10:52;;;;;;;6.73;6.13;;;17.90;99.90;;;;;;6145793;23;20517;-68
2022/08/30 04:13:20;;;;;;;7.17;6.60;;;17.90;99.90;;;;;;6145571;23;20459;-68
2022/08/30 04:15:49;;;;;;;6.60;6.10;;;17.90;99.90;;;;;;6142638;23;20456;-68
2022/08/30 04:18:16;;;;;;;6.50;5.90;;;17.90;99.90;;;;;;6128875;23;20460;-67
2022/08/30 04:20:43;;;;;;;8.13;7.17;;;17.90;99.90;;;;;;6134692;23;20935;-69
2022/08/30 04:23:11;;;;;;;7.67;7.07;;;17.90;99.90;;;;;;6134275;23;20531;-68
2022/08/30 04:25:40;;;;;;;9.33;8.53;;;17.90;99.90;;;;;;6137211;23;20439;-68
2022/08/30 04:28:08;;;;;;;9.07;8.17;;;17.90;99.90;;;;;;6142705;23;20487;-68
2022/08/30 04:30:39;;;;;;;9.50;8.57;;;17.80;99.90;;;;;;6149865;23;20507;-68
2022/08/30 04:33:07;;;;;;;9.10;8.30;;;17.80;99.90;;;;;;6138165;23;20464;-68
2022/08/30 04:35:34;;;;;;;9.00;8.30;;;17.70;99.90;;;;;;6143021;23;20500;-68
2022/08/30 04:38:02;;;;;;;9.40;8.60;;;17.50;99.90;;;;;;6137084;23;20531;-69
2022/08/30 04:40:29;;;;;;;8.93;8.00;;;17.50;99.90;;;;;;6132515;23;22144;-69
2022/08/30 04:42:59;;;;;;;9.20;8.40;;;17.40;99.90;;;;;;6127581;23;20516;-68
2022/08/30 04:45:25;;;;;;;8.10;7.50;;;17.40;99.90;;;;;;6132687;23;20428;-68
2022/08/30 04:47:52;;;;;;;9.73;8.80;;;17.30;99.90;;;;;;6140280;23;20543;-69
2022/08/30 04:50:21;;;;;;;9.10;8.30;;;17.20;99.90;;;;;;6127584;23;20433;-69
2022/08/30 04:52:48;;;;;;;9.40;8.70;;;17.10;99.90;;;;;;6138977;23;20447;-69
2022/08/30 04:55:16;;;;;;;9.47;8.77;;;17.10;99.90;;;;;;6130431;23;20468;-69
2022/08/30 04:57:43;;;;;;;9.30;8.60;;;17.10;99.90;;;;;;6138896;23;20535;-69
2022/08/30 05:00:12;;;;;;;9.00;8.00;;;17.00;99.90;;;;;;6136961;23;20954;-68
2022/08/30 05:02:40;;;;;;;9.57;8.67;;;17.00;99.90;;;;;;6127460;23;20825;-69
2022/08/30 05:07:55;;;;;;;9.30;8.50;;;17.10;99.90;;;;;;6129878;23;20492;-69
2022/08/30 05:10:22;;;;;;;8.83;8.13;;;17.10;99.90;;;;;;6124845;23;20523;-68
2022/08/30 05:12:49;;;;;;;9.00;8.10;;;17.20;99.90;;;;;;6127040;23;20499;-70
2022/08/30 05:15:17;;;;;;;8.93;8.13;;;17.20;99.90;;;;;;6124395;23;20988;-69
2022/08/30 05:17:44;;;;;;;8.37;7.53;;;17.30;99.90;;;;;;6124205;23;20460;-70
2022/08/30 05:20:12;;;;;;;8.80;8.10;;;17.30;99.90;;;;;;6132444;23;20433;-69
2022/08/30 05:22:48;;;;;;;9.07;8.27;;;17.30;99.90;;;;;;6134203;23;20952;-69
2022/08/30 05:25:18;;;;;;;9.77;8.93;;;17.40;99.90;;;;;;6131683;23;20519;-70
2022/08/30 05:27:46;;;;;;;8.27;7.47;;;17.30;99.90;;;;;;6136071;23;20500;-71
2022/08/30 05:30:14;;;;;;;9.13;8.40;;;17.30;99.90;;;;;;6126379;23;20498;-70
2022/08/30 05:32:41;;;;;;;8.70;7.97;;;17.40;99.90;;;;;;6129331;23;20444;-71
2022/08/30 05:35:10;;;;;;;8.57;7.87;;;17.40;99.90;;;;;;6132115;23;20499;-74
2022/08/30 05:37:38;;;;;;;7.70;7.10;;;17.40;99.90;;;;;;6134056;23;20478;-70
2022/08/30 05:40:07;;;;;;;8.20;7.60;;;17.50;99.90;;;;;;6132029;23;20437;-70
2022/08/30 05:42:36;;;;;;;8.57;7.73;;;17.40;99.90;;;;;;6121709;23;20437;-70
2022/08/30 05:45:04;;;;;;;8.60;7.70;;;17.40;99.90;;;;;;6123735;23;20833;-70
2022/08/30 05:47:31;;;;;;;9.30;8.30;;;17.40;99.90;;;;;;6138394;23;20971;-70
2022/08/30 05:49:58;;;;;;;9.00;8.30;;;17.40;99.90;;;;;;6141362;23;20979;-70
2022/08/30 05:52:25;;;;;;;8.67;7.97;;;17.40;99.90;;;;;;6132547;23;20429;-70
2022/08/30 05:54:55;;;;;;;9.13;8.10;;;17.50;99.90;;;;;;6124009;23;22032;-70
2022/08/30 05:57:22;;;;;;;8.70;7.97;;;17.50;99.90;;;;;;6135628;23;20503;-70
2022/08/30 05:59:50;;;;;;;8.93;8.13;;;17.90;99.90;;;;;;6126763;23;20437;-69
2022/08/30 06:02:18;;;;;;;10.03;9.03;;;17.70;99.90;;;;;;6131811;23;20445;-71
2022/08/30 06:04:45;;;;;;;9.43;8.63;;;17.80;99.90;;;;;;6134717;23;20472;-71
2022/08/30 06:07:12;;;;;;;10.53;9.50;;;17.80;99.90;;;;;;6130025;23;20477;-71
2022/08/30 06:09:39;;;;;;;9.73;9.00;;;17.90;99.90;;;;;;6134619;23;20448;-72
2022/08/30 06:12:06;;;;;;;9.70;8.90;;;18.00;99.90;;;;;;6136371;23;20436;-72
2022/08/30 06:14:33;;;;;;;9.30;8.50;;;18.10;99.90;;;;;;6134484;23;20437;-70
2022/08/30 06:17:02;;;;;;;10.30;9.40;;;18.20;99.90;;;;;;6132787;23;20525;-70
2022/08/30 06:19:29;;;;;;;10.77;9.87;;;18.40;99.90;;;;;;6129431;23;20437;-70
2022/08/30 06:21:56;;;;;;;10.90;9.90;;;18.50;99.90;;;;;;6132318;23;20939;-70
2022/08/30 06:24:23;;;;;;;10.97;10.17;;;18.60;99.90;;;;;;6129531;23;20926;-70
2022/08/30 06:26:50;;;;;;;10.50;9.60;;;18.70;99.90;;;;;;6135092;23;20457;-70
2022/08/30 06:29:20;;;;;;;12.13;11.00;;;18.90;99.90;;;;;;6132156;23;20487;-70
2022/08/30 06:31:47;;;;;;;11.50;10.60;;;19.10;99.90;;;;;;6125494;23;20453;-71
2022/08/30 06:34:16;;;;;;;10.83;9.73;;;19.30;99.90;;;;;;6133052;23;20437;-71
2022/08/30 06:36:44;;;;;;;10.60;9.67;;;19.50;99.90;;;;;;6135655;23;20470;-71
2022/08/30 06:39:11;;;;;;;11.00;9.80;;;19.60;99.90;;;;;;6136661;23;20578;-74
2022/08/30 06:41:39;;;;;;;10.10;9.20;;;19.80;99.90;;;;;;6123872;23;20444;-72
2022/08/30 06:44:07;;;;;;;10.10;9.30;;;20.00;99.90;;;;;;6130312;23;20467;-71
2022/08/30 06:46:37;;;;;;;12.20;9.63;;;20.10;99.90;;;;;;6124835;23;20485;-72
2022/08/30 06:49:06;;;;;;;11.07;10.07;;;20.30;99.90;;;;;;6135139;23;21191;-71
2022/08/30 06:51:37;;;;;;;9.30;8.50;;;20.50;99.90;;;;;;6126839;23;20463;-75
2022/08/30 06:54:06;;;;;;;10.57;9.70;;;20.70;99.90;;;;;;6126252;23;20630;-78
2022/08/30 06:56:33;;;;;;;9.20;8.50;;;20.90;99.90;;;;;;6130617;23;20469;-78
2022/08/30 06:59:00;;;;;;;9.80;8.80;;;21.20;99.90;;;;;;6127365;23;20482;-78
2022/08/30 07:01:29;;;;;;;9.33;8.50;;;21.40;99.90;;;;;;6122202;23;20937;-78
2022/08/30 07:03:56;;;;;;;9.70;8.73;;;21.50;99.90;;;;;;6125987;23;20433;-78
2022/08/30 07:06:25;;;;;;;9.37;8.57;;;21.60;99.90;;;;;;6123922;23;20437;-77
2022/08/30 07:08:54;;;;;;;9.90;8.87;;;21.60;99.90;;;;;;6132358;23;20957;-78
2022/08/30 07:11:32;;;;;;;9.70;8.80;;;21.30;99.90;;;;;;6133914;23;20508;-77
2022/08/30 07:14:00;;;;;;;8.93;8.10;;;21.30;99.90;;;;;;6143533;23;20459;-77
2022/08/30 07:16:28;;;;;;;9.60;8.70;;;21.50;99.90;;;;;;6134986;23;20456;-77
2022/08/30 07:18:57;;;;;;;8.57;7.87;;;21.80;99.90;;;;;;6129707;23;21068;-77
2022/08/30 07:21:28;;;;;;;8.90;8.10;;;22.10;99.90;;;;;;6134171;23;20995;-77
2022/08/30 07:23:57;;;;;;;8.57;7.87;;;22.30;99.90;;;;;;6120722;23;20982;-77
2022/08/30 07:26:28;;;;;;;9.03;8.30;;;22.60;99.90;;;;;;6134517;23;20521;-76
2022/08/30 07:28:55;;;;;;;9.37;8.37;;;22.70;99.90;;;;;;6132901;23;20780;-77
2022/08/30 07:31:22;;;;;;;8.30;7.60;;;23.00;99.90;;;;;;6128963;23;20604;-77
2022/08/30 07:33:49;;;;;;;11.13;9.20;;;23.00;99.90;;;;;;6134763;23;20433;-77
2022/08/30 07:36:17;;;;;;;8.47;7.77;;;23.00;99.90;;;;;;6127979;23;20514;-78
2022/08/30 07:38:45;;;;;;;7.93;7.23;;;22.90;99.90;;;;;;6131117;23;20520;-77
2022/08/30 07:41:19;;;;;;;8.90;7.97;;;22.80;99.90;;;;;;6124443;23;20464;-78
2022/08/30 07:43:47;;;;;;;10.23;8.00;;;22.80;99.90;;;;;;6131097;23;20436;-77
2022/08/30 07:46:14;;;;;;;8.20;7.50;;;22.80;99.90;;;;;;6140914;23;20569;-77
2022/08/30 07:48:42;;;;;;;9.03;8.20;;;22.80;99.90;;;;;;6125953;23;20947;-77
2022/08/30 07:51:11;;;;;;;7.63;6.93;;;22.80;99.90;;;;;;6142034;23;20430;-77
2022/08/30 07:53:38;;;;;;;7.87;7.00;;;23.00;99.90;;;;;;6134884;23;20436;-77
2022/08/30 07:56:05;;;;;;;7.67;7.00;;;23.10;99.90;;;;;;6133181;23;20763;-77
2022/08/30 07:58:36;;;;;;;7.70;7.00;;;23.10;99.90;;;;;;6133269;23;20464;-77
2022/08/30 08:01:04;;;;;;;7.97;7.27;;;23.10;99.90;;;;;;6133071;23;20781;-77
2022/08/30 08:03:31;;;;;;;7.70;7.10;;;23.00;99.90;;;;;;6125314;23;20500;-77
2022/08/30 08:05:58;;;;;;;7.80;7.20;;;23.10;99.90;;;;;;6145260;23;20433;-77
2022/08/30 08:08:25;;;;;;;7.57;6.87;;;23.20;99.90;;;;;;6138013;23;20471;-77
2022/08/30 08:10:52;;;;;;;6.87;6.27;;;23.50;99.90;;;;;;6136306;23;20439;-77
2022/08/30 08:13:20;;;;;;;6.20;5.60;;;24.00;99.90;;;;;;6136666;23;20466;-78
2022/08/30 08:15:48;;;;;;;6.27;5.77;;;24.70;99.90;;;;;;6125524;23;20456;-78
2022/08/30 08:18:15;;;;;;;6.93;6.30;;;25.40;99.90;;;;;;6138147;23;20511;-78
2022/08/30 08:20:43;;;;;;;5.90;5.40;;;26.00;99.90;;;;;;6145131;23;20433;-78
2022/08/30 08:23:10;;;;;;;5.77;5.37;;;26.30;99.90;;;;;;6126304;23;20900;-78
2022/08/30 08:25:41;;;;;;;5.83;5.20;;;26.40;99.90;;;;;;6146032;23;20772;-77
2022/08/30 08:28:08;;;;;;;5.90;5.40;;;26.40;99.90;;;;;;6129785;23;21032;-77
2022/08/30 08:30:37;;;;;;;6.70;6.10;;;26.30;99.90;;;;;;6133696;23;20441;-77
2022/08/30 08:33:06;;;;;;;6.43;5.77;;;26.10;99.90;;;;;;6127680;23;20459;-77
2022/08/30 08:35:34;;;;;;;6.00;5.60;;;25.70;99.90;;;;;;6120015;23;20441;-77
2022/08/30 08:38:01;;;;;;;5.90;5.40;;;25.70;99.90;;;;;;6137426;23;20472;-77
2022/08/30 08:40:35;;;;;;;6.23;5.70;;;25.90;99.90;;;;;;6128887;23;20548;-78
2022/08/30 08:43:08;;;;;;;6.07;5.57;;;26.30;99.90;;;;;;6129163;23;20576;-77
2022/08/30 08:45:46;;;;;;;5.70;5.20;;;26.40;99.90;;;;;;6129069;23;20438;-78
2022/08/30 08:48:29;;;;;;;5.83;5.40;;;26.60;99.90;;;;;;6129040;23;20460;-78
2022/08/30 08:53:45;;;;;;;6.60;6.00;;;27.00;99.90;;;;;;6133773;23;20445;-78
2022/08/30 08:56:15;;;;;;;5.83;5.23;;;26.90;99.90;;;;;;6125175;23;20482;-77
2022/08/30 08:58:45;;;;;;;5.70;4.70;;;26.70;99.90;;;;;;6132878;23;20517;-78
2022/08/30 09:01:14;;;;;;;7.03;6.03;;;26.90;99.90;;;;;;6133384;23;20994;-77
2022/08/30 09:03:43;;;;;;;7.30;5.40;;;27.30;99.90;;;;;;6132169;23;20470;-79
2022/08/30 09:06:24;;;;;;;5.80;5.20;;;28.00;99.90;;;;;;6129603;23;20457;-78
2022/08/30 09:08:51;;;;;;;5.33;4.87;;;28.80;99.90;;;;;;6125649;23;21000;-78
2022/08/30 09:11:23;;;;;;;5.60;5.10;;;29.10;98.30;;;;;;6128369;23;20437;-77
2022/08/30 09:13:50;;;;;;;5.27;4.80;;;29.40;97.70;;;;;;6126416;23;21143;-78
2022/08/30 09:16:51;;;;;;;5.23;4.83;;;29.70;96.90;;;;;;6128929;23;20502;-78
2022/08/30 09:19:32;;;;;;;7.03;6.47;;;30.10;96.20;;;;;;6133050;23;20788;-78
2022/08/30 09:22:00;;;;;;;5.70;5.30;;;30.30;94.40;;;;;;6135265;23;20456;-78
2022/08/30 09:24:37;;;;;;;7.63;5.90;;;30.30;94.40;;;;;;6133981;23;21090;-78
2022/08/30 09:27:16;;;;;;;6.17;5.77;;;30.20;94.30;;;;;;6126030;23;20457;-78
2022/08/30 09:29:55;;;;;;;5.43;4.93;;;29.70;94.20;;;;;;6138531;23;20521;-78
2022/08/30 09:32:28;;;;;;;5.83;5.30;;;29.50;95.10;;;;;;6125002;23;20494;-77
2022/08/30 09:34:57;;;;;;;5.87;5.37;;;29.50;94.80;;;;;;6135450;23;21326;-78
2022/08/30 09:37:40;;;;;;;5.57;5.17;;;29.60;93.80;;;;;;6136020;23;20494;-78
2022/08/30 09:40:13;;;;;;;5.60;5.10;;;29.30;93.70;;;;;;6139256;23;20527;-75
2022/08/30 09:42:41;;;;;;;5.67;5.27;;;29.30;94.30;;;;;;6132294;23;20451;-74
2022/08/30 09:45:20;;;;;;;5.77;5.27;;;29.70;93.90;;;;;;6126357;23;20562;-74
2022/08/30 09:47:47;;;;;;;6.03;5.63;;;30.10;92.60;;;;;;6132241;23;20460;-75
2022/08/30 09:50:18;;;;;;;6.03;5.47;;;29.90;93.00;;;;;;6122177;23;20483;-75
2022/08/30 09:52:52;;;;;;;8.20;5.43;;;29.60;93.50;;;;;;6129474;23;20435;-75
2022/08/30 09:55:40;;;;;;;5.60;5.30;;;29.90;93.50;;;;;;6122521;23;21325;-75
2022/08/30 09:58:12;;;;;;;5.97;5.37;;;30.30;92.10;;;;;;6133188;23;20480;-74
2022/08/30 10:00:45;;;;;;;5.50;5.17;;;30.60;91.50;;;;;;6130077;23;20868;-74
2022/08/30 10:03:23;;;;;;;4.87;4.57;;;30.60;91.80;;;;;;6134680;23;20497;-75
2022/08/30 10:05:58;;;;;;;6.27;4.70;;;31.20;90.80;;;;;;6127680;23;20439;-75
2022/08/30 10:08:37;;;;;;;5.30;4.90;;;31.90;90.20;;;;;;6125249;23;20467;-75
2022/08/30 10:11:12;;;;;;;5.07;4.77;;;32.30;86.10;;;;;;6135194;23;20447;-74
2022/08/30 10:13:52;;;;;;;5.53;5.13;;;32.10;86.80;;;;;;6127065;23;20436;-75
2022/08/30 10:16:32;;;;;;;5.70;4.50;;;31.60;85.00;;;;;;6129490;23;20496;-74
2022/08/30 10:19:10;;;;;;;5.67;5.30;;;31.50;86.10;;;;;;6133497;23;20469;-75
2022/08/30 10:21:42;;;;;;;5.10;4.70;;;31.60;85.50;;;;;;6131493;23;20432;-75
2022/08/30 10:24:12;;;;;;;5.40;4.90;;;31.90;83.70;;;;;;6122115;23;20524;-75
2022/08/30 10:26:44;;;;;;;4.93;4.63;;;32.00;85.50;;;;;;6132844;23;20512;-75
2022/08/30 10:29:16;;;;;;;5.17;4.77;;;32.30;83.70;;;;;;6129753;23;20468;-75
2022/08/30 10:31:49;;;;;;;5.50;5.00;;;32.50;82.90;;;;;;6126466;23;20456;-74
2022/08/30 10:34:20;;;;;;;5.43;5.03;;;32.40;81.40;;;;;;6133465;23;20504;-74
2022/08/30 10:36:55;;;;;;;5.33;4.67;;;32.30;81.70;;;;;;6130021;23;20559;-74
2022/08/30 10:39:25;;;;;;;5.10;4.70;;;32.40;80.50;;;;;;6120381;23;21292;-74
2022/08/30 10:42:00;;;;;;;4.73;4.43;;;32.50;77.80;;;;;;6128164;23;21048;-75
2022/08/30 10:44:30;;;;;;;5.60;5.10;;;32.40;77.50;;;;;;6127298;23;20503;-75
2022/08/30 10:47:06;;;;;;;5.70;5.20;;;32.10;77.90;;;;;;6136277;23;21065;-75
2022/08/30 10:49:38;;;;;;;5.20;4.90;;;32.10;79.00;;;;;;6140705;23;20441;-75
2022/08/30 10:52:23;;;;;;;5.30;4.90;;;32.10;77.90;;;;;;6139422;23;20532;-75
2022/08/30 10:54:52;;;;;;;4.50;4.20;;;32.00;77.50;;;;;;6136541;23;20448;-75
2022/08/30 10:57:20;;;;;;;4.73;4.33;;;32.20;76.10;;;;;;6134940;23;20461;-75
2022/08/30 10:59:51;;;;;;;4.63;4.23;;;32.70;73.30;;;;;;6135202;23;20433;-74
2022/08/30 11:02:56;;;;;;;5.20;4.80;;;32.50;72.20;;;;;;6126627;23;20440;-74
2022/08/30 11:05:56;;;;;;;5.17;4.77;;;31.80;74.50;;;;;;6130937;23;20567;-75
2022/08/30 11:08:37;;;;;;;5.33;4.93;;;31.60;75.30;;;;;;6135304;23;20512;-75
2022/08/30 11:11:17;;;;;;;4.63;4.33;;;31.70;74.00;;;;;;6134964;23;20531;-75
2022/08/30 11:13:45;;;;;;;4.70;4.37;;;31.90;73.60;;;;;;6127980;23;20449;-74
2022/08/30 11:16:15;;;;;;;4.67;4.37;;;32.30;71.20;;;;;;6125370;23;20457;-75
2022/08/30 11:18:45;;;;;;;5.20;4.70;;;32.80;70.70;;;;;;6131616;23;20465;-75
2022/08/30 11:21:33;;;;;;;5.10;4.67;;;33.30;70.80;;;;;;6127137;23;20458;-75
2022/08/30 11:24:05;;;;;;;5.43;4.10;;;33.40;69.30;;;;;;6134559;23;20471;-75
2022/08/30 11:26:57;;;;;;;4.77;4.37;;;32.80;71.30;;;;;;6128637;23;20453;-75
2022/08/30 11:29:41;;;;;;;5.13;4.83;;;33.20;72.20;;;;;;6125370;23;20522;-75
2022/08/30 11:32:57;;;;;;;4.73;4.40;;;33.60;70.10;;;;;;6130995;23;20958;-75
2022/08/30 11:35:39;;;;;;;4.70;4.40;;;33.80;70.10;;;;;;6100298;23;20935;-75
2022/08/30 11:38:36;;;;;;;4.70;4.40;;;33.70;67.90;;;;;;6128157;23;20473;-75
2022/08/30 11:41:09;;;;;;;5.17;4.87;;;33.60;70.10;;;;;;6122762;23;20800;-75
2022/08/30 11:43:53;;;;;;;4.43;4.23;;;33.80;67.20;;;;;;6131839;23;20771;-75
2022/08/30 11:46:35;;;;;;;4.63;4.33;;;33.80;68.10;;;;;;6131218;23;20449;-75
2022/08/30 11:49:21;;;;;;;5.13;4.83;;;33.80;66.40;;;;;;6127273;23;20444;-74
2022/08/30 11:52:09;;;;;;;4.90;4.50;;;33.10;66.70;;;;;;6132269;23;20429;-74
2022/08/30 11:54:47;;;;;;;5.07;4.40;;;32.80;69.20;;;;;;6131151;23;20434;-75
2022/08/30 11:57:26;;;;;;;4.90;4.60;;;32.80;69.10;;;;;;6126319;23;20453;-74
2022/08/30 12:00:04;;;;;;;4.83;4.40;;;32.80;67.10;;;;;;6124868;23;20528;-75
2022/08/30 12:02:57;;;;;;;5.10;4.70;;;32.30;67.60;;;;;;6127712;23;20433;-74
2022/08/30 12:05:50;;;;;;;5.23;4.73;;;31.90;69.40;;;;;;6112561;23;21206;-75
2022/08/30 12:08:56;;;;;;;5.27;4.87;;;31.50;71.60;;;;;;6137003;23;20498;-75
2022/08/30 12:11:59;;;;;;;5.10;4.70;;;31.30;72.50;;;;;;6047517;23;20443;-74
2022/08/30 12:14:50;;;;;;;4.90;4.60;;;31.00;71.50;;;;;;6129633;23;20507;-74
2022/08/30 12:20:30;;;;;;;5.17;4.70;;;30.70;72.60;;;;;;6131132;23;20490;-75
2022/08/30 12:23:17;;;;;;;5.20;4.80;;;31.00;73.90;;;;;;6136787;23;20440;-74
2022/08/30 12:25:44;;;;;;;5.20;4.70;;;31.10;73.60;;;;;;6130628;23;21519;-74
2022/08/30 12:28:14;;;;;;;4.83;4.43;;;31.20;73.20;;;;;;6133993;23;20436;-74
2022/08/30 12:30:44;;;;;;;5.60;5.10;;;31.30;71.40;;;;;;6128729;23;20437;-74
2022/08/30 12:33:13;;;;;;;5.57;5.17;;;31.30;71.30;;;;;;6126302;23;20511;-75
2022/08/30 12:35:43;;;;;;;5.20;4.90;;;31.30;71.00;;;;;;6130132;23;20563;-74
2022/08/30 12:38:16;;;;;;;4.80;4.50;;;31.30;72.00;;;;;;6123965;23;21030;-75
2022/08/30 12:40:52;;;;;;;4.80;4.40;;;31.50;72.00;;;;;;6126807;23;20440;-75
2022/08/30 12:43:29;;;;;;;4.67;4.27;;;31.80;72.80;;;;;;6138387;23;20432;-75
2022/08/30 12:46:02;;;;;;;5.40;5.07;;;31.90;71.00;;;;;;6129177;23;20513;-75
2022/08/30 12:48:35;;;;;;;4.80;4.50;;;32.10;71.30;;;;;;6125484;23;20442;-75
2022/08/30 12:51:03;;;;;;;4.33;4.03;;;32.40;70.40;;;;;;6125394;23;20963;-75
2022/08/30 12:53:33;;;;;;;4.37;4.07;;;32.70;70.90;;;;;;6129243;23;20767;-75
2022/08/30 12:56:04;;;;;;;5.23;4.83;;;32.90;69.30;;;;;;6124250;23;20449;-75
2022/08/30 12:58:42;;;;;;;5.00;4.70;;;33.10;69.70;;;;;;6124619;23;20884;-74
2022/08/30 13:01:29;;;;;;;5.00;4.50;;;33.30;67.60;;;;;;6126316;23;20511;-75
2022/08/30 13:04:00;;;;;;;4.80;4.50;;;33.40;67.50;;;;;;6121728;23;20508;-75
2022/08/30 13:06:42;;;;;;;4.73;4.43;;;33.50;67.30;;;;;;6128163;23;20449;-75
2022/08/30 13:09:20;;;;;;;4.90;4.60;;;33.60;68.20;;;;;;6127574;23;20951;-75
2022/08/30 13:11:48;;;;;;;5.03;4.73;;;33.80;67.30;;;;;;6138891;23;20432;-75
2022/08/30 13:14:35;;;;;;;4.77;4.50;;;33.90;66.10;;;;;;6127283;23;20441;-75